Time;durP1;ratioP1;P1;durP2;ratioP2;P2;SDS_P1;SDS_P2;PMS_P1;PMS_P2;Temp;Humidity;BMP_temperature;BMP_pressure;BME280_temperature;BME280_humidity;BME280_pressure;Samples;Min_cycle;Max_cycle;Signal;HPM_P1;HPM_P2
2022/03/16 00:01:05;;;;;;;22.80;18.17;;;25.60;99.90;;;;;;5043961;28;20033;-63
2022/03/16 00:03:31;;;;;;;21.08;15.43;;;25.70;99.90;;;;;;5045884;28;20381;-64
2022/03/16 00:05:58;;;;;;;27.20;19.10;;;25.60;99.90;;;;;;5045087;28;20036;-63
2022/03/16 00:08:28;;;;;;;28.33;17.75;;;25.50;99.90;;;;;;5045974;28;20044;-64
2022/03/16 00:10:56;;;;;;;27.52;18.77;;;25.50;99.90;;;;;;5042946;28;20083;-64
2022/03/16 00:13:23;;;;;;;35.50;19.33;;;25.50;99.90;;;;;;5044924;28;20055;-63
2022/03/16 00:15:50;;;;;;;32.63;17.80;;;25.50;99.90;;;;;;5046302;28;20029;-65
2022/03/16 00:18:19;;;;;;;20.92;11.95;;;25.50;99.90;;;;;;5050266;28;20021;-64
2022/03/16 00:20:47;;;;;;;19.17;10.20;;;25.50;99.90;;;;;;5048403;28;20075;-65
2022/03/16 00:23:15;;;;;;;29.05;10.48;;;25.50;99.90;;;;;;5042972;28;20441;-64
2022/03/16 00:25:42;;;;;;;30.77;10.73;;;25.50;99.90;;;;;;5046648;28;20090;-64
2022/03/16 00:28:10;;;;;;;31.00;9.68;;;25.50;99.90;;;;;;5044408;28;20018;-64
2022/03/16 00:30:37;;;;;;;37.35;11.18;;;25.50;99.90;;;;;;5047022;28;20027;-63
2022/03/16 00:33:04;;;;;;;32.30;8.85;;;25.50;99.90;;;;;;5046281;28;20021;-65
2022/03/16 00:35:31;;;;;;;21.60;8.93;;;25.50;99.90;;;;;;5062114;28;20492;-64
2022/03/16 00:37:58;;;;;;;26.90;9.40;;;25.60;99.90;;;;;;5073899;28;20521;-64
2022/03/16 00:40:25;;;;;;;35.40;10.45;;;25.60;99.90;;;;;;5060161;28;20371;-64
2022/03/16 00:42:52;;;;;;;21.65;9.90;;;25.60;99.90;;;;;;5053152;28;20508;-64
2022/03/16 00:45:19;;;;;;;18.13;10.27;;;25.70;99.90;;;;;;5051329;28;20033;-64
2022/03/16 00:47:46;;;;;;;16.02;8.50;;;25.70;99.90;;;;;;5052316;28;20481;-65
2022/03/16 00:50:12;;;;;;;18.02;9.18;;;25.60;99.90;;;;;;5050896;28;20094;-65
2022/03/16 00:52:39;;;;;;;14.20;8.85;;;25.60;99.90;;;;;;5052154;28;20024;-64
2022/03/16 00:55:06;;;;;;;12.18;8.35;;;25.60;99.90;;;;;;5053335;28;20028;-64
2022/03/16 00:57:33;;;;;;;19.20;9.38;;;25.60;99.90;;;;;;5052176;28;20101;-63
2022/03/16 01:00:00;;;;;;;21.33;11.05;;;25.50;99.90;;;;;;5046556;28;20025;-64
2022/03/16 01:02:27;;;;;;;24.33;13.15;;;25.50;99.90;;;;;;5048809;28;20033;-63
2022/03/16 01:04:53;;;;;;;33.60;20.88;;;25.60;99.90;;;;;;5043164;28;20173;-64
2022/03/16 01:07:20;;;;;;;26.85;16.55;;;25.60;99.90;;;;;;5045758;28;20041;-64
2022/03/16 01:09:47;;;;;;;25.45;13.43;;;25.70;99.90;;;;;;5047866;28;20037;-63
2022/03/16 01:12:13;;;;;;;22.25;11.95;;;25.70;99.90;;;;;;5045821;28;20053;-64
2022/03/16 01:14:40;;;;;;;29.15;12.05;;;25.70;99.90;;;;;;5046518;28;20028;-64
2022/03/16 01:17:07;;;;;;;21.13;11.43;;;25.70;99.90;;;;;;5038665;28;20029;-63
2022/03/16 01:19:35;;;;;;;17.27;10.98;;;25.70;99.90;;;;;;5043347;28;20037;-62
2022/03/16 01:22:06;;;;;;;20.70;11.88;;;25.70;99.90;;;;;;5044651;28;20112;-63
2022/03/16 01:24:33;;;;;;;20.73;12.05;;;25.80;99.90;;;;;;5038537;28;20029;-63
2022/03/16 01:27:01;;;;;;;26.27;11.27;;;25.70;99.90;;;;;;5043349;28;20112;-63
2022/03/16 01:29:28;;;;;;;18.30;10.90;;;25.80;99.90;;;;;;5041394;28;20033;-62
2022/03/16 01:31:55;;;;;;;16.45;9.52;;;25.80;99.90;;;;;;5039839;28;20022;-63
2022/03/16 01:34:22;;;;;;;12.45;8.82;;;25.90;99.90;;;;;;5048104;28;20036;-64
2022/03/16 01:36:49;;;;;;;11.57;8.45;;;25.90;99.90;;;;;;5045264;28;20021;-64
2022/03/16 01:39:16;;;;;;;18.88;8.85;;;25.90;99.90;;;;;;5047734;28;20032;-63
2022/03/16 01:41:43;;;;;;;14.20;9.45;;;25.90;99.90;;;;;;5045449;28;20036;-63
2022/03/16 01:44:10;;;;;;;121.68;86.35;;;26.00;99.90;;;;;;5052057;28;20102;-62
2022/03/16 01:46:37;;;;;;;17.20;12.02;;;26.00;99.90;;;;;;5048769;28;20033;-62
2022/03/16 01:49:04;;;;;;;21.85;13.27;;;26.10;99.90;;;;;;5048506;28;20363;-63
2022/03/16 01:51:31;;;;;;;39.20;25.92;;;26.10;99.90;;;;;;5049309;28;20559;-63
2022/03/16 01:53:58;;;;;;;15.75;12.13;;;26.20;99.90;;;;;;5056491;28;20025;-63
2022/03/16 01:56:25;;;;;;;14.65;10.40;;;26.20;99.90;;;;;;5055728;28;20413;-63
2022/03/16 01:58:52;;;;;;;17.70;9.48;;;26.20;99.90;;;;;;5056467;28;20074;-64
2022/03/16 02:01:18;;;;;;;15.73;9.82;;;26.20;99.90;;;;;;5056356;28;20029;-64
2022/03/16 02:03:45;;;;;;;12.23;10.00;;;26.30;99.90;;;;;;5056570;28;20489;-64
2022/03/16 02:06:12;;;;;;;17.75;12.48;;;26.30;99.90;;;;;;5056156;28;20041;-63
2022/03/16 02:08:40;;;;;;;25.92;13.25;;;26.30;99.90;;;;;;5053537;28;20021;-65
2022/03/16 02:11:08;;;;;;;21.77;11.10;;;26.40;99.90;;;;;;5056201;28;20029;-64
2022/03/16 02:13:36;;;;;;;18.92;11.13;;;26.40;99.90;;;;;;5055456;28;20032;-63
2022/03/16 02:16:03;;;;;;;15.85;11.00;;;26.50;99.90;;;;;;5055417;28;20044;-64
2022/03/16 02:18:31;;;;;;;18.05;12.90;;;26.50;99.90;;;;;;5056364;28;20037;-63
2022/03/16 02:21:02;;;;;;;20.55;13.15;;;26.50;99.90;;;;;;5056425;28;20060;-65
2022/03/16 02:23:29;;;;;;;17.83;11.77;;;26.60;99.90;;;;;;5056274;28;20029;-63
2022/03/16 02:25:55;;;;;;;18.75;11.38;;;26.60;99.90;;;;;;5056215;28;20037;-64
2022/03/16 02:28:24;;;;;;;17.38;10.77;;;26.70;99.90;;;;;;5054511;28;20474;-64
2022/03/16 02:30:52;;;;;;;18.10;10.25;;;26.60;99.90;;;;;;5066617;28;20102;-63
2022/03/16 02:33:19;;;;;;;12.75;10.20;;;26.60;99.90;;;;;;5076175;28;20040;-63
2022/03/16 02:35:47;;;;;;;16.02;10.30;;;26.60;99.90;;;;;;5072810;28;20500;-63
2022/03/16 02:38:14;;;;;;;18.83;11.55;;;26.80;99.90;;;;;;5076056;28;20036;-63
2022/03/16 02:40:41;;;;;;;18.13;11.55;;;26.80;99.90;;;;;;5071980;28;20040;-64
2022/03/16 02:43:07;;;;;;;15.70;9.30;;;26.80;99.90;;;;;;5076144;28;20107;-63
2022/03/16 02:45:34;;;;;;;18.48;11.75;;;26.80;99.90;;;;;;5065143;28;20037;-63
2022/03/16 02:48:01;;;;;;;13.43;11.07;;;26.90;99.90;;;;;;5053002;28;20424;-62
2022/03/16 02:50:27;;;;;;;21.08;13.80;;;27.10;99.90;;;;;;5052857;28;20417;-63
2022/03/16 02:52:54;;;;;;;13.75;11.05;;;27.10;99.90;;;;;;5055150;28;20021;-63
2022/03/16 02:55:21;;;;;;;15.68;12.02;;;27.10;99.90;;;;;;5054677;28;20028;-63
2022/03/16 02:57:48;;;;;;;18.02;11.23;;;27.20;99.90;;;;;;5054158;28;20028;-64
2022/03/16 03:00:15;;;;;;;14.93;11.15;;;27.30;99.90;;;;;;5053980;28;20017;-63
2022/03/16 03:02:42;;;;;;;13.55;10.73;;;27.30;99.90;;;;;;5056082;28;20037;-64
2022/03/16 03:05:09;;;;;;;16.45;10.63;;;27.30;99.90;;;;;;5053083;28;20028;-64
2022/03/16 03:07:36;;;;;;;19.00;13.25;;;27.30;99.90;;;;;;5052954;28;20462;-63
2022/03/16 03:10:03;;;;;;;19.58;11.82;;;27.40;99.90;;;;;;5050349;28;20036;-63
2022/03/16 03:12:34;;;;;;;16.42;9.80;;;27.40;99.90;;;;;;5052983;28;20465;-62
2022/03/16 03:15:04;;;;;;;13.95;10.68;;;27.50;99.90;;;;;;5053478;28;20025;-63
2022/03/16 03:17:31;;;;;;;13.38;11.18;;;27.50;99.90;;;;;;5051381;28;20040;-66
2022/03/16 03:19:58;;;;;;;16.08;11.05;;;27.50;99.90;;;;;;5053571;28;20033;-63
2022/03/16 03:22:27;;;;;;;23.58;12.63;;;27.50;99.90;;;;;;5049978;28;20451;-63
2022/03/16 03:24:55;;;;;;;16.45;12.05;;;27.60;99.90;;;;;;5053260;28;20035;-64
2022/03/16 03:27:22;;;;;;;17.85;11.32;;;27.60;99.90;;;;;;5053672;28;20085;-63
2022/03/16 03:29:49;;;;;;;14.93;12.10;;;27.70;99.90;;;;;;5053863;28;20378;-63
2022/03/16 03:32:16;;;;;;;23.25;13.57;;;27.70;99.90;;;;;;5055107;28;20501;-63
2022/03/16 03:34:50;;;;;;;16.35;11.27;;;27.80;99.90;;;;;;5053988;28;20101;-64
2022/03/16 03:37:16;;;;;;;26.50;12.70;;;27.90;99.90;;;;;;5053534;28;20033;-63
2022/03/16 03:39:44;;;;;;;15.50;12.00;;;28.00;99.90;;;;;;5048822;28;20484;-62
2022/03/16 03:42:11;;;;;;;21.73;13.38;;;28.10;99.90;;;;;;5052413;28;20059;-63
2022/03/16 03:44:39;;;;;;;22.23;11.38;;;28.30;99.90;;;;;;5052148;28;20109;-63
2022/03/16 03:47:06;;;;;;;17.60;13.23;;;28.30;99.90;;;;;;5049979;28;20025;-63
2022/03/16 03:49:34;;;;;;;17.77;14.98;;;28.40;99.90;;;;;;5053451;28;20090;-63
2022/03/16 03:52:01;;;;;;;20.42;13.55;;;28.50;99.90;;;;;;4961388;28;2639349;-63
2022/03/16 03:54:28;;;;;;;54.97;37.25;;;28.50;99.90;;;;;;5049960;28;20040;-63
2022/03/16 03:56:55;;;;;;;85.80;59.92;;;28.60;99.90;;;;;;5044808;28;20072;-62
2022/03/16 03:59:23;;;;;;;19.70;15.98;;;28.80;99.90;;;;;;5053719;28;20389;-63
2022/03/16 04:01:50;;;;;;;17.38;11.57;;;28.90;99.90;;;;;;5053788;28;20082;-61
2022/03/16 04:04:17;;;;;;;15.90;12.02;;;28.90;99.90;;;;;;5053514;28;20040;-60
2022/03/16 04:06:44;;;;;;;22.55;15.90;;;28.90;99.90;;;;;;5053478;28;20032;-61
2022/03/16 04:09:11;;;;;;;20.13;12.23;;;28.90;99.90;;;;;;5052087;28;20021;-63
2022/03/16 04:11:38;;;;;;;30.05;19.23;;;28.90;99.90;;;;;;5052967;28;20033;-61
2022/03/16 04:14:05;;;;;;;17.70;11.15;;;28.90;99.90;;;;;;5052464;28;20028;-61
2022/03/16 04:16:32;;;;;;;16.67;10.98;;;28.80;99.90;;;;;;5050212;28;20086;-62
2022/03/16 04:18:59;;;;;;;18.80;12.25;;;28.90;99.90;;;;;;5050571;28;20021;-61
2022/03/16 04:21:26;;;;;;;20.88;12.30;;;29.00;99.90;;;;;;5053323;28;20029;-63
2022/03/16 04:23:54;;;;;;;18.55;12.85;;;29.20;99.90;;;;;;5052617;28;20118;-61
2022/03/16 04:26:20;;;;;;;23.85;14.52;;;29.20;99.90;;;;;;5051980;28;20021;-61
2022/03/16 04:28:47;;;;;;;20.67;13.85;;;29.40;99.90;;;;;;5053344;28;20115;-63
2022/03/16 04:31:14;;;;;;;18.63;12.38;;;29.40;99.90;;;;;;5053151;28;20045;-62
2022/03/16 04:33:41;;;;;;;17.15;11.75;;;29.60;99.90;;;;;;5053316;28;20025;-62
2022/03/16 04:36:08;;;;;;;19.63;12.27;;;29.70;99.90;;;;;;5053052;28;20123;-63
2022/03/16 04:38:35;;;;;;;18.63;12.07;;;29.70;99.90;;;;;;5052178;28;20547;-62
2022/03/16 04:41:03;;;;;;;19.20;14.75;;;29.70;99.90;;;;;;5053103;28;20422;-62
2022/03/16 04:43:30;;;;;;;87.38;42.00;;;29.70;99.90;;;;;;5053075;28;20103;-62
2022/03/16 04:45:56;;;;;;;117.93;68.53;;;29.70;99.90;;;;;;5051373;28;20079;-63
2022/03/16 04:48:23;;;;;;;63.35;34.55;;;29.90;99.90;;;;;;5050416;28;20020;-61
2022/03/16 04:50:50;;;;;;;193.20;110.32;;;30.10;99.90;;;;;;5052874;28;20549;-62
2022/03/16 04:53:17;;;;;;;26.15;17.95;;;30.20;99.90;;;;;;5053214;28;20120;-62
2022/03/16 04:55:44;;;;;;;23.05;14.48;;;30.00;99.90;;;;;;5048056;28;20024;-63
2022/03/16 04:58:12;;;;;;;26.48;18.25;;;30.10;99.90;;;;;;5051259;28;20029;-62
2022/03/16 05:00:39;;;;;;;28.90;16.50;;;30.20;99.90;;;;;;5047987;28;20037;-63
2022/03/16 05:03:06;;;;;;;47.10;26.60;;;30.30;99.90;;;;;;5044311;28;20037;-63
2022/03/16 05:05:33;;;;;;;27.80;18.85;;;30.30;99.90;;;;;;5046423;28;20056;-63
2022/03/16 05:08:00;;;;;;;50.55;28.17;;;30.20;99.90;;;;;;5052275;28;20025;-61
2022/03/16 05:10:27;;;;;;;26.42;17.20;;;30.40;99.90;;;;;;5052535;28;20021;-62
2022/03/16 05:12:54;;;;;;;19.98;15.27;;;30.30;99.90;;;;;;5052919;28;20024;-62
2022/03/16 05:15:21;;;;;;;22.45;17.20;;;30.30;99.90;;;;;;5051650;28;20062;-61
2022/03/16 05:17:48;;;;;;;26.70;20.98;;;30.30;99.90;;;;;;5051575;28;20484;-61
2022/03/16 05:20:16;;;;;;;52.75;37.38;;;30.20;99.90;;;;;;5052124;28;20152;-62
2022/03/16 05:22:49;;;;;;;29.17;19.80;;;30.20;99.90;;;;;;5052830;28;20031;-61
2022/03/16 05:25:19;;;;;;;46.22;35.97;;;30.20;99.90;;;;;;5045379;28;20525;-61
2022/03/16 05:27:46;;;;;;;28.65;21.45;;;30.10;99.90;;;;;;5049926;28;20071;-63
2022/03/16 05:30:14;;;;;;;68.10;46.40;;;30.10;99.90;;;;;;5052074;28;20029;-65
2022/03/16 05:32:42;;;;;;;29.17;20.25;;;30.20;99.90;;;;;;5052601;28;20466;-62
2022/03/16 05:35:11;;;;;;;21.48;15.05;;;30.20;99.90;;;;;;5052663;28;20489;-60
2022/03/16 05:37:38;;;;;;;68.45;40.13;;;30.20;99.90;;;;;;5051757;28;20025;-61
2022/03/16 05:40:07;;;;;;;37.45;23.52;;;30.30;99.90;;;;;;5047971;28;20025;-61
2022/03/16 05:42:34;;;;;;;29.10;20.50;;;30.40;99.90;;;;;;5049958;28;20025;-61
2022/03/16 05:45:01;;;;;;;19.50;13.38;;;30.40;99.90;;;;;;5051182;28;20025;-60
2022/03/16 05:47:28;;;;;;;18.00;11.63;;;30.40;99.90;;;;;;5050948;28;20592;-62
2022/03/16 05:49:56;;;;;;;17.25;11.63;;;30.40;99.90;;;;;;5049130;28;20025;-61
2022/03/16 05:52:26;;;;;;;33.70;19.42;;;30.40;99.90;;;;;;5047378;28;20036;-61
2022/03/16 05:54:55;;;;;;;13.55;11.50;;;30.40;99.90;;;;;;5043832;28;20029;-60
2022/03/16 05:57:22;;;;;;;15.30;11.35;;;30.40;99.90;;;;;;5045901;28;20029;-59
2022/03/16 05:59:49;;;;;;;20.63;13.68;;;30.30;99.90;;;;;;5052290;28;20039;-61
2022/03/16 06:02:16;;;;;;;23.83;17.88;;;30.30;99.90;;;;;;5045964;28;20099;-57
2022/03/16 06:04:43;;;;;;;28.38;17.40;;;30.40;99.90;;;;;;5048250;28;20486;-61
2022/03/16 06:07:11;;;;;;;23.38;15.23;;;30.40;99.90;;;;;;5049303;28;20021;-61
2022/03/16 06:09:37;;;;;;;66.15;41.85;;;30.40;99.90;;;;;;5045834;28;20026;-61
2022/03/16 06:12:05;;;;;;;296.15;211.32;;;30.40;99.90;;;;;;5043453;28;20048;-60
2022/03/16 06:14:32;;;;;;;138.93;96.40;;;30.50;99.90;;;;;;5052953;28;20532;-62
2022/03/16 06:16:59;;;;;;;44.65;33.88;;;30.50;99.90;;;;;;5055439;28;20029;-61
2022/03/16 06:19:26;;;;;;;21.65;17.10;;;30.60;99.90;;;;;;5054569;28;20428;-60
2022/03/16 06:21:52;;;;;;;18.55;15.57;;;30.60;99.90;;;;;;5055915;28;20029;-62
2022/03/16 06:24:19;;;;;;;22.88;16.13;;;30.60;99.90;;;;;;5055827;28;20037;-60
2022/03/16 06:26:46;;;;;;;22.02;16.27;;;30.60;99.90;;;;;;5055903;28;20032;-60
2022/03/16 06:29:12;;;;;;;19.60;15.35;;;30.60;99.90;;;;;;5053903;28;20028;-61
2022/03/16 06:31:39;;;;;;;27.95;15.52;;;30.60;99.90;;;;;;5048225;28;20471;-60
2022/03/16 06:34:06;;;;;;;18.58;14.18;;;30.70;99.90;;;;;;5048349;28;20056;-60
2022/03/16 06:36:32;;;;;;;21.88;14.43;;;30.70;99.90;;;;;;5055463;28;20044;-61
2022/03/16 06:38:59;;;;;;;53.53;39.45;;;30.60;99.90;;;;;;5055565;28;20029;-60
2022/03/16 06:41:26;;;;;;;29.55;19.52;;;30.70;99.90;;;;;;5053984;28;20036;-65
2022/03/16 06:43:52;;;;;;;37.22;30.52;;;30.70;99.90;;;;;;5054012;28;20767;-59
2022/03/16 06:46:19;;;;;;;39.30;31.23;;;30.80;99.90;;;;;;5054590;28;20029;-61
2022/03/16 06:48:46;;;;;;;71.20;55.00;;;30.70;99.90;;;;;;5054325;28;20017;-60
2022/03/16 06:51:13;;;;;;;16.52;11.65;;;30.70;99.90;;;;;;5049610;28;20057;-59
2022/03/16 06:53:39;;;;;;;21.08;17.50;;;30.80;99.90;;;;;;5044206;28;20027;-60
2022/03/16 06:56:06;;;;;;;62.03;46.10;;;30.80;99.90;;;;;;5055179;28;20044;-60
2022/03/16 06:58:35;;;;;;;40.80;29.80;;;30.90;99.90;;;;;;5055343;28;20047;-60
2022/03/16 07:01:02;;;;;;;18.23;12.52;;;31.00;99.90;;;;;;5054079;28;20104;-62
2022/03/16 07:03:30;;;;;;;14.82;12.52;;;31.10;99.90;;;;;;5054648;28;20433;-60
2022/03/16 07:05:56;;;;;;;20.80;13.90;;;31.30;99.90;;;;;;5053915;28;20034;-60
2022/03/16 07:08:23;;;;;;;15.85;11.45;;;31.30;99.90;;;;;;5054143;28;20025;-60
2022/03/16 07:10:50;;;;;;;20.00;12.73;;;31.20;99.90;;;;;;5054348;28;20082;-61
2022/03/16 07:13:17;;;;;;;15.07;11.82;;;31.20;99.90;;;;;;5055129;28;20060;-61
2022/03/16 07:15:45;;;;;;;17.27;12.23;;;31.30;99.90;;;;;;5054814;28;20025;-60
2022/03/16 07:18:12;;;;;;;17.95;12.57;;;31.30;99.90;;;;;;5054565;28;20021;-61
2022/03/16 07:20:39;;;;;;;20.85;15.90;;;31.40;99.90;;;;;;5049723;28;20159;-63
2022/03/16 07:23:14;;;;;;;19.45;14.40;;;31.40;99.90;;;;;;5054300;28;20463;-60
2022/03/16 07:25:47;;;;;;;23.08;14.93;;;31.40;99.90;;;;;;5053417;28;20029;-60
2022/03/16 07:28:15;;;;;;;24.67;17.52;;;31.40;99.90;;;;;;5054636;28;20063;-61
2022/03/16 07:30:42;;;;;;;25.75;18.70;;;31.40;99.90;;;;;;5055105;28;20029;-61
2022/03/16 07:33:10;;;;;;;22.60;16.13;;;31.40;99.90;;;;;;5054471;28;20106;-61
2022/03/16 07:35:38;;;;;;;21.50;16.33;;;31.40;99.90;;;;;;5054805;28;20029;-61
2022/03/16 07:38:06;;;;;;;13.50;10.68;;;31.50;99.90;;;;;;5052510;28;20031;-60
2022/03/16 07:40:35;;;;;;;20.23;13.52;;;31.50;99.90;;;;;;5054204;28;20032;-62
2022/03/16 07:43:03;;;;;;;21.33;12.77;;;31.60;99.90;;;;;;5054505;28;20013;-61
2022/03/16 07:45:29;;;;;;;25.05;14.85;;;31.70;99.90;;;;;;5052551;28;20013;-61
2022/03/16 07:47:56;;;;;;;14.50;11.82;;;31.80;99.90;;;;;;5048777;28;20020;-61
2022/03/16 07:50:24;;;;;;;19.52;13.07;;;31.70;99.90;;;;;;5050098;28;20338;-62
2022/03/16 07:52:51;;;;;;;17.40;13.32;;;31.80;99.90;;;;;;5051201;28;20478;-61
2022/03/16 07:55:17;;;;;;;16.17;11.27;;;31.80;99.90;;;;;;5050160;28;20436;-61
2022/03/16 07:57:44;;;;;;;25.00;13.40;;;31.80;99.90;;;;;;5050568;28;20054;-62
2022/03/16 08:00:13;;;;;;;20.77;13.75;;;31.90;99.90;;;;;;5047059;28;20485;-62
2022/03/16 08:02:40;;;;;;;22.13;14.73;;;31.90;99.90;;;;;;5052724;28;20078;-62
2022/03/16 08:05:08;;;;;;;20.05;14.18;;;32.00;99.90;;;;;;5053880;28;20051;-65
2022/03/16 08:07:36;;;;;;;21.05;13.57;;;32.00;99.90;;;;;;5052756;28;20037;-63
2022/03/16 08:10:03;;;;;;;57.33;42.53;;;32.00;99.90;;;;;;5053334;28;20481;-61
2022/03/16 08:12:30;;;;;;;100.97;67.65;;;32.00;99.90;;;;;;5053149;28;20036;-62
2022/03/16 08:14:57;;;;;;;20.20;15.70;;;32.10;99.90;;;;;;5052935;28;20117;-61
2022/03/16 08:17:24;;;;;;;24.15;14.07;;;32.00;99.30;;;;;;5052897;28;20044;-60
2022/03/16 08:19:51;;;;;;;24.70;14.07;;;32.00;99.80;;;;;;5053316;28;20119;-63
2022/03/16 08:22:29;;;;;;;16.20;12.50;;;32.00;99.30;;;;;;5051807;28;20024;-66
2022/03/16 08:24:59;;;;;;;22.30;13.88;;;32.00;99.80;;;;;;5054047;28;20048;-61
2022/03/16 08:27:26;;;;;;;17.55;12.45;;;32.00;99.20;;;;;;5053784;28;20036;-60
2022/03/16 08:29:54;;;;;;;20.48;14.65;;;32.00;98.40;;;;;;5053485;28;20107;-62
2022/03/16 08:32:21;;;;;;;20.73;14.13;;;32.00;99.40;;;;;;5048127;28;20449;-59
2022/03/16 08:34:50;;;;;;;24.55;13.70;;;32.00;99.80;;;;;;5052993;28;20043;-63
2022/03/16 08:37:17;;;;;;;19.70;12.77;;;32.00;98.60;;;;;;5051829;28;20043;-62
2022/03/16 08:39:45;;;;;;;27.63;15.82;;;32.00;98.30;;;;;;5050284;28;20056;-62
2022/03/16 08:42:12;;;;;;;36.67;19.95;;;32.10;98.30;;;;;;5051837;28;20432;-61
2022/03/16 08:44:42;;;;;;;38.00;19.30;;;32.10;97.80;;;;;;5052685;28;20108;-62
2022/03/16 08:47:11;;;;;;;44.00;25.15;;;32.00;98.00;;;;;;5050482;28;20075;-62
2022/03/16 08:49:38;;;;;;;32.05;17.98;;;32.00;98.20;;;;;;5052271;28;20027;-61
2022/03/16 08:52:06;;;;;;;93.70;51.83;;;32.00;97.40;;;;;;5048424;28;20060;-61
2022/03/16 08:54:33;;;;;;;24.75;15.82;;;31.90;97.60;;;;;;5051995;28;20032;-62
2022/03/16 08:57:00;;;;;;;44.53;25.35;;;31.90;96.30;;;;;;5051992;28;20440;-60
2022/03/16 08:59:27;;;;;;;32.83;20.95;;;31.90;96.90;;;;;;5052067;28;20083;-61
2022/03/16 09:01:54;;;;;;;18.75;12.95;;;31.90;97.10;;;;;;5050729;28;20033;-61
2022/03/16 09:04:21;;;;;;;23.83;14.55;;;31.80;95.80;;;;;;5051614;28;20032;-61
2022/03/16 09:06:49;;;;;;;19.45;12.57;;;31.80;96.40;;;;;;5050794;28;20025;-62
2022/03/16 09:09:16;;;;;;;14.93;11.32;;;31.90;96.70;;;;;;5051649;28;20446;-61
2022/03/16 09:11:42;;;;;;;17.95;11.15;;;31.90;96.20;;;;;;5051480;28;20066;-61
2022/03/16 09:14:09;;;;;;;17.40;12.10;;;32.00;97.20;;;;;;5052266;28;20044;-62
2022/03/16 09:16:36;;;;;;;19.73;12.63;;;32.00;96.40;;;;;;5052546;28;20031;-62
2022/03/16 09:19:02;;;;;;;19.73;12.52;;;31.90;96.10;;;;;;5052942;28;20037;-60
2022/03/16 09:21:30;;;;;;;20.13;11.60;;;32.00;96.90;;;;;;5050739;28;20017;-61
2022/03/16 09:23:57;;;;;;;22.25;13.20;;;32.00;97.10;;;;;;5052724;28;20028;-62
2022/03/16 09:26:23;;;;;;;23.95;12.75;;;31.90;97.40;;;;;;5052633;28;20032;-60
2022/03/16 09:28:50;;;;;;;29.42;15.77;;;32.00;97.40;;;;;;5052827;28;20564;-62
2022/03/16 09:31:17;;;;;;;22.05;14.88;;;32.00;97.30;;;;;;5052574;28;20086;-61
2022/03/16 09:33:44;;;;;;;56.88;43.20;;;32.00;97.70;;;;;;5053127;28;20046;-62
2022/03/16 09:36:11;;;;;;;42.05;29.08;;;31.90;97.10;;;;;;5052557;28;20136;-60
2022/03/16 09:38:44;;;;;;;24.92;12.43;;;31.90;97.90;;;;;;5052633;28;20040;-60
2022/03/16 09:41:11;;;;;;;53.08;41.40;;;31.90;97.30;;;;;;5053018;28;20090;-59
2022/03/16 09:43:38;;;;;;;33.50;23.25;;;31.90;96.80;;;;;;5051911;28;20386;-61
2022/03/16 09:46:11;;;;;;;24.55;15.18;;;31.90;96.60;;;;;;5048776;28;20033;-61
2022/03/16 09:48:40;;;;;;;17.90;12.50;;;31.90;96.60;;;;;;5044539;28;20273;-61
2022/03/16 09:51:10;;;;;;;20.20;11.77;;;31.90;96.20;;;;;;5056147;28;20485;-61
2022/03/16 09:53:37;;;;;;;13.07;8.27;;;31.80;95.10;;;;;;5054211;28;20017;-60
2022/03/16 09:56:05;;;;;;;15.45;9.18;;;31.70;94.60;;;;;;5056689;28;20028;-61
2022/03/16 09:58:32;;;;;;;18.33;8.30;;;31.70;94.70;;;;;;5055402;28;20048;-59
2022/03/16 10:01:00;;;;;;;16.35;8.40;;;31.70;94.70;;;;;;5055025;28;20035;-62
2022/03/16 10:03:30;;;;;;;13.20;10.05;;;31.70;95.40;;;;;;5055585;28;20024;-61
2022/03/16 10:05:58;;;;;;;24.02;11.18;;;31.70;94.90;;;;;;5054262;28;20037;-61
2022/03/16 10:08:28;;;;;;;66.95;52.28;;;31.70;94.60;;;;;;5053906;28;20028;-62
2022/03/16 10:13:43;;;;;;;60.40;35.78;;;31.70;95.80;;;;;;5053457;28;20032;-60
2022/03/16 10:16:11;;;;;;;48.40;34.03;;;31.70;95.50;;;;;;5053789;28;20048;-61
2022/03/16 10:18:37;;;;;;;66.85;48.08;;;31.60;95.50;;;;;;5053905;28;20021;-62
2022/03/16 10:21:04;;;;;;;38.53;25.77;;;31.60;96.30;;;;;;5052160;28;20029;-62
2022/03/16 10:23:31;;;;;;;34.22;20.42;;;31.60;96.30;;;;;;5055477;28;20040;-61
2022/03/16 10:26:03;;;;;;;31.85;20.52;;;31.60;95.10;;;;;;5056486;28;20043;-62
2022/03/16 10:28:34;;;;;;;29.20;20.48;;;31.60;95.40;;;;;;5056481;28;20045;-61
2022/03/16 10:31:05;;;;;;;43.15;26.83;;;31.60;95.50;;;;;;5056297;28;20025;-62
2022/03/16 10:33:36;;;;;;;29.23;19.37;;;31.50;95.60;;;;;;5051804;28;20079;-61
2022/03/16 10:36:09;;;;;;;29.50;18.48;;;31.50;95.50;;;;;;5035758;28;20029;-61
2022/03/16 10:38:42;;;;;;;34.63;20.98;;;31.50;95.90;;;;;;5035437;28;20069;-59
2022/03/16 10:46:46;;;;;;;33.25;20.73;;;31.40;95.40;;;;;;5058851;28;20036;-60
2022/03/16 10:49:16;;;;;;;53.78;32.20;;;31.40;95.70;;;;;;5050283;28;20033;-60
2022/03/16 10:51:47;;;;;;;58.05;37.15;;;31.30;95.40;;;;;;5050528;28;20041;-60
2022/03/16 10:54:16;;;;;;;93.05;59.30;;;31.30;95.30;;;;;;5055894;28;20075;-61
2022/03/16 10:56:45;;;;;;;61.00;38.20;;;31.30;95.70;;;;;;5048902;28;20025;-60
2022/03/16 10:59:12;;;;;;;46.47;27.10;;;31.30;96.30;;;;;;5075870;28;20353;-61
2022/03/16 11:01:40;;;;;;;41.22;25.48;;;31.30;96.00;;;;;;5075772;28;20052;-61
2022/03/16 11:04:08;;;;;;;42.15;24.45;;;31.30;96.60;;;;;;5050953;28;20065;-61
2022/03/16 11:06:36;;;;;;;47.03;27.23;;;31.20;96.20;;;;;;5054235;28;20441;-60
2022/03/16 11:09:03;;;;;;;58.67;42.60;;;31.20;97.10;;;;;;5055938;28;20538;-60
2022/03/16 11:14:08;;;;;;;185.10;141.82;;;31.20;97.50;;;;;;5054903;28;20169;-60
2022/03/16 11:16:35;;;;;;;90.38;58.70;;;31.20;97.50;;;;;;5054820;28;20041;-60
2022/03/16 11:19:04;;;;;;;346.58;262.48;;;31.10;97.20;;;;;;5069581;28;20503;-60
2022/03/16 11:21:49;;;;;;;161.70;97.03;;;31.10;97.00;;;;;;5065829;28;20038;-60
2022/03/16 11:24:22;;;;;;;122.93;70.60;;;31.00;97.70;;;;;;5070048;28;20033;-61
2022/03/16 11:27:01;;;;;;;124.82;70.15;;;31.00;97.50;;;;;;5070638;28;20555;-60
2022/03/16 11:29:34;;;;;;;90.97;56.88;;;30.90;97.50;;;;;;5048159;28;20021;-60
2022/03/16 11:32:09;;;;;;;90.43;54.95;;;30.90;97.80;;;;;;5045619;28;20025;-60
2022/03/16 11:34:36;;;;;;;87.40;54.80;;;30.90;97.60;;;;;;5057179;28;20489;-60
2022/03/16 11:37:11;;;;;;;79.05;50.30;;;30.90;97.70;;;;;;5053542;28;20381;-61
2022/03/16 11:39:46;;;;;;;86.00;55.20;;;30.90;98.10;;;;;;5050436;28;20040;-60
2022/03/16 11:42:17;;;;;;;79.18;49.92;;;30.90;98.40;;;;;;5052766;28;20355;-60
2022/03/16 11:44:45;;;;;;;77.15;48.13;;;30.90;98.20;;;;;;5051511;28;20025;-61
2022/03/16 11:47:13;;;;;;;198.20;139.27;;;30.80;98.00;;;;;;5053682;28;20032;-61
2022/03/16 11:49:45;;;;;;;134.93;91.35;;;30.80;98.60;;;;;;5052574;28;20017;-60
2022/03/16 11:52:12;;;;;;;135.25;89.30;;;30.80;99.30;;;;;;5053174;28;20445;-61
2022/03/16 11:54:45;;;;;;;108.03;80.45;;;30.80;99.90;;;;;;5052117;28;20027;-61
2022/03/16 11:57:12;;;;;;;118.70;82.85;;;30.80;99.60;;;;;;5051535;28;20055;-59
2022/03/16 11:59:44;;;;;;;114.95;85.60;;;30.70;99.80;;;;;;5053990;28;20033;-60
2022/03/16 12:02:17;;;;;;;105.53;73.53;;;30.70;99.90;;;;;;5050778;28;20029;-61
2022/03/16 12:04:47;;;;;;;104.68;67.15;;;30.70;99.90;;;;;;5053950;28;20040;-61
2022/03/16 12:07:23;;;;;;;105.50;67.32;;;30.70;99.90;;;;;;5050623;28;20363;-60
2022/03/16 12:09:54;;;;;;;120.10;69.63;;;30.70;99.90;;;;;;5053706;28;20060;-60
2022/03/16 12:15:09;;;;;;;131.20;78.93;;;30.60;99.90;;;;;;5053525;28;20381;-60
2022/03/16 12:17:37;;;;;;;206.93;110.75;;;30.60;99.90;;;;;;5053195;28;20040;-60
2022/03/16 12:20:10;;;;;;;195.20;109.20;;;30.60;99.90;;;;;;5052738;28;20099;-60
2022/03/16 12:22:39;;;;;;;209.65;114.30;;;30.50;99.90;;;;;;5051549;28;20033;-60
2022/03/16 12:25:26;;;;;;;236.88;136.98;;;30.40;99.90;;;;;;5052797;28;20029;-59
2022/03/16 12:30:39;;;;;;;300.80;160.30;;;30.30;99.90;;;;;;5053668;28;20393;-58
2022/03/16 12:33:06;;;;;;;265.75;135.10;;;30.30;99.90;;;;;;5054094;28;20040;-59
2022/03/16 12:35:36;;;;;;;268.02;135.68;;;30.30;99.90;;;;;;5053093;28;20378;-59
2022/03/16 12:38:03;;;;;;;236.05;123.65;;;30.20;99.90;;;;;;5052306;28;20025;-59
2022/03/16 12:40:29;;;;;;;214.52;118.50;;;30.20;99.90;;;;;;5053559;28;20031;-59
2022/03/16 12:42:56;;;;;;;221.70;116.93;;;30.10;99.90;;;;;;5052482;28;20037;-60
2022/03/16 12:45:28;;;;;;;231.05;124.95;;;30.10;99.90;;;;;;5053309;28;20056;-60